Terminal Aerodrome Forecast
Issued by NWS Austin/San Antonio, TX

Home | Current Version | Previous Version | Text Only | Print | Product List | Glossary On
Versions: 1 2 3 4 5 6 7 8 9 10 11 12 13 14 15 16 17
633
FTUS44 KEWX 110538
TAFDRT
TAF
KDRT 110538Z 1106/1206 11008KT P6SM OVC005
     FM110800 11009KT 5SM BR OVC004
     FM111100 11009KT 2SM BR OVC003
      TEMPO 1111/1114 1/2SM FG
     FM111600 14005KT 3SM BR BKN008
     FM111700 14005KT P6SM BKN020
     FM111800 13004KT P6SM FEW015 SCT250=

USA.gov is the U.S. government's official web portal to all federal, state and local government web resources and services.